createdAt,value
2022-11-17T00:00:12.000Z,989.6
2022-11-17T00:01:28.000Z,989.4
2022-11-17T00:02:45.000Z,989.4
2022-11-17T00:04:01.000Z,989.3
2022-11-17T00:05:17.000Z,989.4
2022-11-17T00:06:33.000Z,989.3
2022-11-17T00:07:49.000Z,989.3
2022-11-17T00:09:05.000Z,989.3
2022-11-17T00:10:21.000Z,989.3
2022-11-17T00:11:37.000Z,989.3
2022-11-17T00:12:53.000Z,989.3
2022-11-17T00:15:26.000Z,989.2
2022-11-17T00:16:42.000Z,989.2
2022-11-17T00:17:58.000Z,989.1
2022-11-17T00:19:15.000Z,989.1
2022-11-17T00:20:31.000Z,989.1
2022-11-17T00:21:47.000Z,989.1
2022-11-17T00:23:03.000Z,989.1
2022-11-17T00:24:20.000Z,989.1
2022-11-17T00:25:35.000Z,989.1
2022-11-17T00:26:51.000Z,989.1
2022-11-17T00:28:07.000Z,989
2022-11-17T00:29:24.000Z,989
2022-11-17T00:30:40.000Z,989
2022-11-17T00:31:56.000Z,989
2022-11-17T00:33:12.000Z,988.9
2022-11-17T00:34:28.000Z,988.8
2022-11-17T00:35:45.000Z,988.8
2022-11-17T00:37:01.000Z,988.8
2022-11-17T00:38:17.000Z,988.7
2022-11-17T00:40:50.000Z,988.7
2022-11-17T00:42:05.000Z,988.7
2022-11-17T00:43:21.000Z,988.7
2022-11-17T00:44:37.000Z,988.7
2022-11-17T00:45:54.000Z,988.7
2022-11-17T00:47:10.000Z,988.7
2022-11-17T00:48:25.000Z,988.6
2022-11-17T00:49:40.000Z,988.7
2022-11-17T00:50:56.000Z,988.6
2022-11-17T00:52:11.000Z,988.6
2022-11-17T00:53:27.000Z,988.6
2022-11-17T00:54:43.000Z,988.5
2022-11-17T00:56:00.000Z,988.6
2022-11-17T00:57:16.000Z,988.5
2022-11-17T00:58:32.000Z,988.5
2022-11-17T00:59:48.000Z,988.4
2022-11-17T01:01:04.000Z,988.4
2022-11-17T01:02:21.000Z,988.4
2022-11-17T01:03:37.000Z,988.4
2022-11-17T01:04:53.000Z,988.4
2022-11-17T01:06:09.000Z,988.3
2022-11-17T01:07:26.000Z,988.3
2022-11-17T01:08:41.000Z,988.3
2022-11-17T01:09:57.000Z,988.3
2022-11-17T01:11:13.000Z,988.2
2022-11-17T01:12:30.000Z,988.3
2022-11-17T01:13:46.000Z,988.2
2022-11-17T01:15:02.000Z,988.2
2022-11-17T01:16:18.000Z,988.2
2022-11-17T01:17:35.000Z,988.1
2022-11-17T01:18:51.000Z,988.1
2022-11-17T01:20:07.000Z,988.1
2022-11-17T01:21:23.000Z,988.1
2022-11-17T01:22:39.000Z,988
2022-11-17T01:23:56.000Z,988
2022-11-17T01:25:11.000Z,988.1
2022-11-17T01:26:27.000Z,988
2022-11-17T01:27:43.000Z,987.9
2022-11-17T01:28:59.000Z,987.9
2022-11-17T01:30:15.000Z,987.8
2022-11-17T01:31:31.000Z,987.8
2022-11-17T01:32:47.000Z,987.8
2022-11-17T01:34:04.000Z,987.8
2022-11-17T01:35:20.000Z,987.8
2022-11-17T01:36:36.000Z,987.8
2022-11-17T01:37:52.000Z,987.8
2022-11-17T01:39:09.000Z,987.7
2022-11-17T01:40:25.000Z,987.7
2022-11-17T01:41:41.000Z,987.7
2022-11-17T01:42:57.000Z,987.6
2022-11-17T01:44:13.958Z,987.6
2022-11-17T01:45:29.000Z,987.6
2022-11-17T01:46:45.000Z,987.6
2022-11-17T01:48:01.000Z,987.6
2022-11-17T01:49:17.000Z,987.5
2022-11-17T01:50:34.000Z,987.4
2022-11-17T01:51:50.000Z,987.4
2022-11-17T01:53:06.000Z,987.4
2022-11-17T01:54:22.000Z,987.4
2022-11-17T01:55:39.000Z,987.3
2022-11-17T01:56:55.000Z,987.3
2022-11-17T01:58:11.000Z,987.3
2022-11-17T01:59:27.000Z,987.3
2022-11-17T02:00:44.000Z,987.2
2022-11-17T02:01:59.000Z,987.3
2022-11-17T02:03:15.000Z,987.3
2022-11-17T02:04:31.000Z,987.3
2022-11-17T02:05:47.000Z,987.4
2022-11-17T02:07:04.000Z,987.3
2022-11-17T02:08:20.000Z,987.3
2022-11-17T02:09:36.000Z,987.3
2022-11-17T02:10:52.000Z,987.3
2022-11-17T02:12:09.000Z,987.3
2022-11-17T02:13:25.000Z,987.2
2022-11-17T02:14:41.000Z,987.2
2022-11-17T02:15:57.000Z,987.2
2022-11-17T02:17:14.000Z,987.2
2022-11-17T02:18:29.000Z,987.1
2022-11-17T02:19:45.000Z,987.2
2022-11-17T02:21:01.000Z,987.1
2022-11-17T02:22:18.000Z,987.1
2022-11-17T02:23:34.000Z,987.1
2022-11-17T02:24:50.000Z,987
2022-11-17T02:26:06.000Z,987
2022-11-17T02:27:22.000Z,986.9
2022-11-17T02:28:39.000Z,986.8
2022-11-17T02:29:55.000Z,986.8
2022-11-17T02:31:11.000Z,986.8
2022-11-17T02:32:27.000Z,986.8
2022-11-17T02:33:44.000Z,986.8
2022-11-17T02:34:59.000Z,986.7
2022-11-17T02:36:15.000Z,986.8
2022-11-17T02:37:31.000Z,986.8
2022-11-17T02:38:48.000Z,986.6
2022-11-17T02:40:04.000Z,986.6
2022-11-17T02:41:20.000Z,986.6
2022-11-17T02:42:36.000Z,986.6
2022-11-17T02:43:53.000Z,986.6
2022-11-17T02:45:09.000Z,986.5
2022-11-17T02:46:25.000Z,986.5
2022-11-17T02:47:41.000Z,986.4
2022-11-17T02:48:57.000Z,986.4
2022-11-17T02:50:13.000Z,986.4
2022-11-17T02:51:28.000Z,986.4
2022-11-17T02:52:43.000Z,986.3
2022-11-17T02:53:58.000Z,986.3
2022-11-17T02:55:15.000Z,986.3
2022-11-17T02:56:31.000Z,986.4
2022-11-17T02:57:47.000Z,986.4
2022-11-17T02:59:03.000Z,986.3
2022-11-17T03:00:20.000Z,986.2
2022-11-17T03:01:36.000Z,986.1
2022-11-17T03:02:52.000Z,986.1
2022-11-17T03:04:08.000Z,986.1
2022-11-17T03:05:25.000Z,986.1
2022-11-17T03:06:41.000Z,986.1
2022-11-17T03:07:57.000Z,986
2022-11-17T03:09:13.000Z,986
2022-11-17T03:10:29.000Z,986
2022-11-17T03:11:45.000Z,985.9
2022-11-17T03:13:01.000Z,986
2022-11-17T03:14:17.000Z,986
2022-11-17T03:15:33.000Z,985.9
2022-11-17T03:16:50.000Z,985.9
2022-11-17T03:18:06.000Z,985.9
2022-11-17T03:19:22.000Z,985.8
2022-11-17T03:20:38.000Z,985.9
2022-11-17T03:21:55.000Z,986
2022-11-17T03:23:11.000Z,985.9
2022-11-17T03:24:27.000Z,985.9
2022-11-17T03:25:43.000Z,985.9
2022-11-17T03:26:59.000Z,985.8
2022-11-17T03:28:15.000Z,985.8
2022-11-17T03:29:31.000Z,985.7
2022-11-17T03:30:47.000Z,985.8
2022-11-17T03:32:04.000Z,985.8
2022-11-17T03:33:20.000Z,985.7
2022-11-17T03:34:36.000Z,985.8
2022-11-17T03:35:52.000Z,985.8
2022-11-17T03:37:08.000Z,985.7
2022-11-17T03:38:25.000Z,985.8
2022-11-17T03:39:41.000Z,985.7
2022-11-17T03:40:57.000Z,985.8
2022-11-17T03:42:13.000Z,985.7
2022-11-17T03:43:29.000Z,985.7
2022-11-17T03:44:45.000Z,985.6
2022-11-17T03:46:01.000Z,985.7
2022-11-17T03:47:17.000Z,985.7
2022-11-17T03:48:34.000Z,985.6
2022-11-17T03:49:50.000Z,985.6
2022-11-17T03:51:06.000Z,985.7
2022-11-17T03:52:22.000Z,985.6
2022-11-17T03:53:39.000Z,985.7
2022-11-17T03:54:55.000Z,985.5
2022-11-17T03:56:11.000Z,985.5
2022-11-17T03:57:27.000Z,985.5
2022-11-17T03:58:43.000Z,985.5
2022-11-17T03:59:59.000Z,985.5
2022-11-17T04:01:15.000Z,985.6
2022-11-17T04:02:31.000Z,985.5
2022-11-17T04:03:47.000Z,985.4
2022-11-17T04:05:04.000Z,985.5
2022-11-17T04:06:20.000Z,985.4
2022-11-17T04:07:36.000Z,985.4
2022-11-17T04:08:52.000Z,985.4
2022-11-17T04:10:09.000Z,985.4
2022-11-17T04:11:25.000Z,985.4
2022-11-17T04:12:41.000Z,985.4
2022-11-17T04:13:57.000Z,985.3
2022-11-17T04:15:14.000Z,985.4
2022-11-17T04:16:29.000Z,985.4
2022-11-17T04:17:45.000Z,985.4
2022-11-17T04:19:01.000Z,985.3
2022-11-17T04:20:17.000Z,985.4
2022-11-17T04:21:33.000Z,985.2
2022-11-17T04:22:48.000Z,985.3
2022-11-17T04:24:04.000Z,985.3
2022-11-17T04:25:20.000Z,985.2
2022-11-17T04:26:36.000Z,985.2
2022-11-17T04:27:51.000Z,985
2022-11-17T04:30:23.000Z,985.1
2022-11-17T04:31:40.000Z,985.2
2022-11-17T04:32:56.000Z,985.1
2022-11-17T04:34:12.000Z,985.1
2022-11-17T04:35:28.000Z,985.1
2022-11-17T04:36:45.000Z,984.9
2022-11-17T04:38:01.000Z,985
2022-11-17T04:39:17.000Z,984.9
2022-11-17T04:40:33.000Z,985
2022-11-17T04:41:50.000Z,984.9
2022-11-17T04:43:06.000Z,984.8
2022-11-17T04:44:21.000Z,984.8
2022-11-17T04:45:37.000Z,984.7
2022-11-17T04:46:53.000Z,984.8
2022-11-17T04:48:10.000Z,984.8
2022-11-17T04:49:26.000Z,984.7
2022-11-17T04:50:42.000Z,984.7
2022-11-17T04:51:58.000Z,984.7
2022-11-17T04:53:15.000Z,984.6
2022-11-17T04:54:31.000Z,984.7
2022-11-17T04:55:47.000Z,984.7
2022-11-17T04:57:03.000Z,984.7
2022-11-17T04:58:20.000Z,984.7
2022-11-17T04:59:36.000Z,984.7
2022-11-17T05:00:51.000Z,984.5
2022-11-17T05:02:07.000Z,984.6
2022-11-17T05:03:24.000Z,984.6
2022-11-17T05:04:40.000Z,984.6
2022-11-17T05:05:56.000Z,984.6
2022-11-17T05:07:12.000Z,984.6
2022-11-17T05:08:28.000Z,984.6
2022-11-17T05:09:45.000Z,984.5
2022-11-17T05:11:01.000Z,984.6
2022-11-17T05:12:17.000Z,984.6
2022-11-17T05:13:33.000Z,984.6
2022-11-17T05:14:50.000Z,984.5
2022-11-17T05:16:06.000Z,984.6
2022-11-17T05:17:21.000Z,984.7
2022-11-17T05:18:37.000Z,984.7
2022-11-17T05:19:54.000Z,984.7
2022-11-17T05:21:10.000Z,984.7
2022-11-17T05:22:26.000Z,984.6
2022-11-17T05:23:42.000Z,984.6
2022-11-17T05:24:59.000Z,984.5
2022-11-17T05:26:15.000Z,984.6
2022-11-17T05:27:31.000Z,984.5
2022-11-17T05:28:47.000Z,984.5
2022-11-17T05:30:03.000Z,984.5
2022-11-17T05:31:20.000Z,984.5
2022-11-17T05:32:36.000Z,984.6
2022-11-17T05:33:51.000Z,984.5
2022-11-17T05:35:07.000Z,984.6
2022-11-17T05:36:24.000Z,984.6
2022-11-17T05:37:40.000Z,984.6
2022-11-17T05:38:56.000Z,984.6
2022-11-17T05:40:12.000Z,984.5
2022-11-17T05:41:29.000Z,984.6
2022-11-17T05:42:45.000Z,984.5
2022-11-17T05:44:00.000Z,984.5
2022-11-17T05:45:16.000Z,984.5
2022-11-17T05:46:33.000Z,984.4
2022-11-17T05:47:49.000Z,984.5
2022-11-17T05:49:05.000Z,984.5
2022-11-17T05:50:21.000Z,984.5
2022-11-17T05:51:37.000Z,984.4
2022-11-17T05:52:54.000Z,984.4
2022-11-17T05:54:10.000Z,984.4
2022-11-17T05:55:26.000Z,984.4
2022-11-17T05:57:59.000Z,984.4
2022-11-17T05:59:15.000Z,984.5
2022-11-17T06:00:30.000Z,984.4
2022-11-17T06:01:46.000Z,984.4
2022-11-17T06:03:03.000Z,984.4
2022-11-17T06:04:19.000Z,984.3
2022-11-17T06:05:35.000Z,984.3
2022-11-17T06:06:51.000Z,984.3
2022-11-17T06:08:08.000Z,984.3
2022-11-17T06:10:40.000Z,984.3
2022-11-17T06:11:56.000Z,984.3
2022-11-17T06:13:12.000Z,984.3
2022-11-17T06:14:29.000Z,984.4
2022-11-17T06:15:45.000Z,984.3
2022-11-17T06:17:00.000Z,984.4
2022-11-17T06:18:16.000Z,984.3
2022-11-17T06:19:33.000Z,984.3
2022-11-17T06:20:49.000Z,984.3
2022-11-17T06:23:21.000Z,984.3
2022-11-17T06:24:37.000Z,984.3
2022-11-17T06:25:52.000Z,984.3
2022-11-17T06:27:08.000Z,984.2
2022-11-17T06:28:24.000Z,984.2
2022-11-17T06:29:41.000Z,984.2
2022-11-17T06:30:57.000Z,984.1
2022-11-17T06:32:13.000Z,984.2
2022-11-17T06:33:29.000Z,984.2
2022-11-17T06:36:02.000Z,984.3
2022-11-17T06:37:18.000Z,984.2
2022-11-17T06:38:34.000Z,984.2
2022-11-17T06:39:50.000Z,984.1
2022-11-17T06:41:07.000Z,984.2
2022-11-17T06:42:22.000Z,984.2
2022-11-17T06:43:38.000Z,984.2
2022-11-17T06:44:54.000Z,984.2
2022-11-17T06:46:11.000Z,984.2
2022-11-17T06:48:43.000Z,984.2
2022-11-17T06:49:58.000Z,984.1
2022-11-17T06:51:14.000Z,984.2
2022-11-17T06:52:30.000Z,984.2
2022-11-17T06:53:46.000Z,984.2
2022-11-17T06:55:02.000Z,984.3
2022-11-17T06:56:19.000Z,984.2
2022-11-17T06:57:35.000Z,984.1
2022-11-17T06:58:51.000Z,984.2
2022-11-17T07:01:23.000Z,984.2
2022-11-17T07:02:40.000Z,984.2
2022-11-17T07:03:56.000Z,984.3
2022-11-17T07:05:12.000Z,984.3
2022-11-17T07:06:28.000Z,984.2
2022-11-17T07:07:44.000Z,984.2
2022-11-17T07:09:00.000Z,984.2
2022-11-17T07:10:16.000Z,984.2
2022-11-17T07:11:32.000Z,984.2
2022-11-17T07:12:49.000Z,984.2
2022-11-17T07:14:05.000Z,984.1
2022-11-17T07:15:21.000Z,984.1
2022-11-17T07:16:37.000Z,984
2022-11-17T07:17:53.000Z,984.1
2022-11-17T07:19:08.000Z,984
2022-11-17T07:20:24.000Z,984.1
2022-11-17T07:21:40.000Z,984
2022-11-17T07:22:57.000Z,984
2022-11-17T07:24:13.000Z,984.1
2022-11-17T07:26:45.000Z,984.1
2022-11-17T07:28:01.000Z,984.1
2022-11-17T07:29:18.000Z,984
2022-11-17T07:30:34.000Z,984
2022-11-17T07:31:50.000Z,984
2022-11-17T07:33:06.000Z,984
2022-11-17T07:34:23.000Z,983.9
2022-11-17T07:35:38.000Z,984
2022-11-17T07:36:54.000Z,984
2022-11-17T07:38:10.000Z,984
2022-11-17T07:39:27.000Z,984
2022-11-17T07:40:43.000Z,984.2
2022-11-17T07:41:59.000Z,984.1
2022-11-17T07:43:15.000Z,984
2022-11-17T07:44:32.000Z,983.9
2022-11-17T07:45:47.000Z,983.9
2022-11-17T07:47:02.000Z,984.1
2022-11-17T07:48:18.000Z,984
2022-11-17T07:49:34.000Z,984.1
2022-11-17T07:52:07.000Z,984
2022-11-17T07:53:23.000Z,984
2022-11-17T07:54:39.000Z,984.1
2022-11-17T07:55:56.000Z,984
2022-11-17T07:57:12.000Z,984.1
2022-11-17T07:58:28.000Z,984
2022-11-17T07:59:44.000Z,984.1
2022-11-17T08:01:01.000Z,984.1
2022-11-17T08:02:17.000Z,984
2022-11-17T08:03:32.000Z,984.1
2022-11-17T08:04:48.000Z,984.1
2022-11-17T08:06:05.000Z,984
2022-11-17T08:07:21.000Z,984.1
2022-11-17T08:08:37.000Z,984.1
2022-11-17T08:09:53.000Z,984.2
2022-11-17T08:11:09.000Z,984.2
2022-11-17T08:12:26.000Z,984.3
2022-11-17T08:13:42.000Z,984.2
2022-11-17T08:14:58.000Z,984.2
2022-11-17T08:16:14.000Z,984.2
2022-11-17T08:17:31.000Z,984.1
2022-11-17T08:18:47.000Z,984.2
2022-11-17T08:20:02.000Z,984.3
2022-11-17T08:21:18.000Z,984.2
2022-11-17T08:22:35.000Z,984.1
2022-11-17T08:23:51.000Z,984.2
2022-11-17T08:25:07.000Z,984.2
2022-11-17T08:26:23.000Z,984.2
2022-11-17T08:27:40.000Z,984.2
2022-11-17T08:28:56.000Z,984.2
2022-11-17T08:30:12.000Z,984.2
2022-11-17T08:31:28.000Z,984.2
2022-11-17T08:32:44.000Z,984.2
2022-11-17T08:34:01.000Z,984.2
2022-11-17T08:35:17.000Z,984.3
2022-11-17T08:36:32.000Z,984.3
2022-11-17T08:37:48.000Z,984.2
2022-11-17T08:39:05.000Z,984.3
2022-11-17T08:40:21.000Z,984.3
2022-11-17T08:42:53.000Z,984.3
2022-11-17T08:44:10.000Z,984.2
2022-11-17T08:45:26.000Z,984.3
2022-11-17T08:46:42.000Z,984.3
2022-11-17T08:47:58.000Z,984.3
2022-11-17T08:49:15.000Z,984.2
2022-11-17T08:50:31.000Z,984.2
2022-11-17T08:51:47.000Z,984.2
2022-11-17T08:53:02.000Z,984.3
2022-11-17T08:55:35.000Z,984.3
2022-11-17T08:56:51.000Z,984.4
2022-11-17T08:58:07.000Z,984.4
2022-11-17T08:59:23.000Z,984.5
2022-11-17T09:00:40.000Z,984.5
2022-11-17T09:01:56.000Z,984.4
2022-11-17T09:03:12.000Z,984.5
2022-11-17T09:04:28.000Z,984.5
2022-11-17T09:05:45.000Z,984.5
2022-11-17T09:08:17.000Z,984.7
2022-11-17T09:09:32.000Z,984.7
2022-11-17T09:10:48.000Z,984.7
2022-11-17T09:12:04.000Z,984.7
2022-11-17T09:13:20.000Z,984.7
2022-11-17T09:14:36.000Z,984.7
2022-11-17T09:15:53.000Z,984.7
2022-11-17T09:17:09.000Z,984.7
2022-11-17T09:18:25.000Z,984.7
2022-11-17T09:20:57.000Z,984.8
2022-11-17T09:22:14.000Z,984.7
2022-11-17T09:23:30.000Z,984.7
2022-11-17T09:24:46.000Z,984.8
2022-11-17T09:26:02.000Z,984.8
2022-11-17T09:27:18.000Z,984.8
2022-11-17T09:28:34.000Z,984.8
2022-11-17T09:29:50.000Z,984.8
2022-11-17T09:31:06.000Z,984.9
2022-11-17T09:32:23.000Z,984.9
2022-11-17T09:33:39.000Z,984.9
2022-11-17T09:34:55.000Z,985
2022-11-17T09:36:11.000Z,984.9
2022-11-17T09:37:27.000Z,984.9
2022-11-17T09:38:42.000Z,984.9
2022-11-17T09:39:58.000Z,985
2022-11-17T09:41:14.000Z,985
2022-11-17T09:42:30.000Z,985
2022-11-17T09:43:47.000Z,985
2022-11-17T09:45:03.000Z,985
2022-11-17T09:46:19.000Z,985
2022-11-17T09:47:35.000Z,985.1
2022-11-17T09:48:52.000Z,985.1
2022-11-17T09:50:08.000Z,985.1
2022-11-17T09:51:24.000Z,985
2022-11-17T09:52:40.000Z,985.1
2022-11-17T09:53:57.000Z,985.1
2022-11-17T09:55:12.000Z,985
2022-11-17T09:56:28.000Z,985
2022-11-17T09:59:01.000Z,985.1
2022-11-17T10:00:16.000Z,985.1
2022-11-17T10:01:32.000Z,985.1
2022-11-17T10:02:48.000Z,985.1
2022-11-17T10:04:04.000Z,985.1
2022-11-17T10:05:21.000Z,985.1
2022-11-17T10:06:37.000Z,985.1
2022-11-17T10:07:53.000Z,985.2
2022-11-17T10:09:09.000Z,985.2
2022-11-17T10:11:42.000Z,985.1
2022-11-17T10:12:58.000Z,985.2
2022-11-17T10:14:14.000Z,985.3
2022-11-17T10:15:31.000Z,985.2
2022-11-17T10:16:46.000Z,985.2
2022-11-17T10:18:02.000Z,985.3
2022-11-17T10:19:18.000Z,985.2
2022-11-17T10:20:35.000Z,985.3
2022-11-17T10:21:51.000Z,985.3
2022-11-17T10:23:07.000Z,985.2
2022-11-17T10:24:23.000Z,985.3
2022-11-17T10:25:39.000Z,985.2
2022-11-17T10:26:56.000Z,985.2
2022-11-17T10:28:12.000Z,985.2
2022-11-17T10:29:28.000Z,985.2
2022-11-17T10:30:44.000Z,985.3
2022-11-17T10:32:01.000Z,985.2
2022-11-17T10:33:17.000Z,985.2
2022-11-17T10:34:33.000Z,985.2
2022-11-17T10:37:05.000Z,985.2
2022-11-17T10:39:37.000Z,985.3
2022-11-17T10:40:53.000Z,985.2
2022-11-17T10:42:10.000Z,985.3
2022-11-17T10:43:26.000Z,985.3
2022-11-17T10:44:42.000Z,985.3
2022-11-17T10:45:58.000Z,985.3
2022-11-17T10:47:14.000Z,985.3
2022-11-17T10:49:47.000Z,985.2
2022-11-17T10:51:02.000Z,985.2
2022-11-17T10:52:17.000Z,985.2
2022-11-17T10:53:34.000Z,985.2
2022-11-17T10:54:50.000Z,985.2
2022-11-17T10:56:06.000Z,985.2
2022-11-17T10:57:22.000Z,985.2
2022-11-17T10:58:39.000Z,985.2
2022-11-17T10:59:55.000Z,985.2
2022-11-17T11:02:27.000Z,985.3
2022-11-17T11:03:44.000Z,985.3
2022-11-17T11:05:00.000Z,985.3
2022-11-17T11:06:16.000Z,985.3
2022-11-17T11:07:32.000Z,985.3
2022-11-17T11:08:48.000Z,985.3
2022-11-17T11:10:04.000Z,985.3
2022-11-17T11:11:20.000Z,985.2
2022-11-17T11:12:36.000Z,985.2
2022-11-17T11:15:09.000Z,985.3
2022-11-17T11:16:24.000Z,985.3
2022-11-17T11:17:39.000Z,985.4
2022-11-17T11:18:55.000Z,985.3
2022-11-17T11:20:12.000Z,985.4
2022-11-17T11:21:28.000Z,985.4
2022-11-17T11:22:44.000Z,985.3
2022-11-17T11:24:00.000Z,985.3
2022-11-17T11:25:17.000Z,985.4
2022-11-17T11:27:49.000Z,985.3
2022-11-17T11:29:05.000Z,985.3
2022-11-17T11:30:22.000Z,985.4
2022-11-17T11:31:38.000Z,985.4
2022-11-17T11:32:54.000Z,985.4
2022-11-17T11:34:09.000Z,985.4
2022-11-17T11:35:25.000Z,985.4
2022-11-17T11:36:42.000Z,985.4
2022-11-17T11:37:58.000Z,985.4
2022-11-17T11:40:30.000Z,985.5
2022-11-17T11:41:47.000Z,985.5
2022-11-17T11:43:03.000Z,985.4
2022-11-17T11:44:19.000Z,985.4
2022-11-17T11:45:35.000Z,985.4
2022-11-17T11:46:52.000Z,985.4
2022-11-17T11:48:08.000Z,985.4
2022-11-17T11:49:24.000Z,985.4
2022-11-17T11:50:39.000Z,985.4
2022-11-17T11:51:56.000Z,985.5
2022-11-17T11:53:12.000Z,985.4
2022-11-17T11:54:27.000Z,985.4
2022-11-17T11:55:42.000Z,985.5
2022-11-17T11:56:59.000Z,985.5
2022-11-17T11:58:15.000Z,985.5
2022-11-17T11:59:31.000Z,985.5
2022-11-17T12:00:47.000Z,985.5
2022-11-17T12:02:03.000Z,985.6
2022-11-17T12:03:20.000Z,985.5
2022-11-17T12:04:36.000Z,985.5
2022-11-17T12:05:52.000Z,985.5
2022-11-17T12:07:08.000Z,985.6
2022-11-17T12:08:24.000Z,985.7
2022-11-17T12:09:39.000Z,985.6
2022-11-17T12:10:55.000Z,985.6
2022-11-17T12:12:11.000Z,985.6
2022-11-17T12:13:28.000Z,985.6
2022-11-17T12:14:44.000Z,985.7
2022-11-17T12:16:00.000Z,985.7
2022-11-17T12:17:16.000Z,985.7
2022-11-17T12:18:33.000Z,985.8
2022-11-17T12:19:49.000Z,985.6
2022-11-17T12:21:05.000Z,985.6
2022-11-17T12:22:21.000Z,985.7
2022-11-17T12:23:37.000Z,985.6
2022-11-17T12:24:54.000Z,985.6
2022-11-17T12:26:09.000Z,985.6
2022-11-17T12:27:25.000Z,985.6
2022-11-17T12:28:41.000Z,985.7
2022-11-17T12:31:14.000Z,985.8
2022-11-17T12:32:30.000Z,985.8
2022-11-17T12:33:46.000Z,985.7
2022-11-17T12:35:03.000Z,985.8
2022-11-17T12:36:19.000Z,985.8
2022-11-17T12:37:35.000Z,985.8
2022-11-17T12:38:51.000Z,985.8
2022-11-17T12:40:08.000Z,985.9
2022-11-17T12:41:24.000Z,985.8
2022-11-17T12:43:55.000Z,985.8
2022-11-17T12:45:11.000Z,985.9
2022-11-17T12:46:28.000Z,985.8
2022-11-17T12:47:44.000Z,985.8
2022-11-17T12:49:00.000Z,985.8
2022-11-17T12:50:16.000Z,985.9
2022-11-17T12:51:33.000Z,985.9
2022-11-17T12:52:49.000Z,985.8
2022-11-17T12:54:05.000Z,985.8
2022-11-17T12:56:38.000Z,985.8
2022-11-17T12:57:54.000Z,985.8
2022-11-17T12:59:09.000Z,985.8
2022-11-17T13:00:25.000Z,985.9
2022-11-17T13:01:42.000Z,985.9
2022-11-17T13:02:58.000Z,985.9
2022-11-17T13:04:14.000Z,985.9
2022-11-17T13:05:30.000Z,985.9
2022-11-17T13:06:46.000Z,986
2022-11-17T13:08:03.000Z,985.9
2022-11-17T13:09:19.000Z,986
2022-11-17T13:10:35.000Z,986
2022-11-17T13:11:51.000Z,986
2022-11-17T13:13:08.000Z,986.1
2022-11-17T13:14:24.000Z,986
2022-11-17T13:15:39.000Z,986.1
2022-11-17T13:18:12.000Z,986
2022-11-17T13:19:28.000Z,986.1
2022-11-17T13:22:00.000Z,986.1
2022-11-17T13:23:16.000Z,986.2
2022-11-17T13:24:31.000Z,986.1
2022-11-17T13:25:47.000Z,986.1
2022-11-17T13:27:03.000Z,986.1
2022-11-17T13:28:19.000Z,986.1
2022-11-17T13:29:36.000Z,986.2
2022-11-17T13:30:52.000Z,986.2
2022-11-17T13:32:08.000Z,986.3
2022-11-17T13:33:24.000Z,986.2
2022-11-17T13:34:41.000Z,986.2
2022-11-17T13:35:57.000Z,986.2
2022-11-17T13:37:12.000Z,986.2
2022-11-17T13:38:28.000Z,986.3
2022-11-17T13:39:44.000Z,986.2
2022-11-17T13:41:00.000Z,986.3
2022-11-17T13:42:16.000Z,986.3
2022-11-17T13:43:32.000Z,986.3
2022-11-17T13:44:49.000Z,986.3
2022-11-17T13:46:05.000Z,986.3
2022-11-17T13:47:21.000Z,986.3
2022-11-17T13:48:37.000Z,986.3
2022-11-17T13:49:54.000Z,986.3
2022-11-17T13:51:10.000Z,986.4
2022-11-17T13:52:26.000Z,986.4
2022-11-17T13:53:42.000Z,986.3
2022-11-17T13:54:58.000Z,986.4
2022-11-17T13:56:14.000Z,986.3
2022-11-17T13:57:30.000Z,986.4
2022-11-17T14:00:02.000Z,986.4
2022-11-17T14:01:19.000Z,986.5
2022-11-17T14:02:35.000Z,986.5
2022-11-17T14:03:51.000Z,986.5
2022-11-17T14:05:07.000Z,986.6
2022-11-17T14:06:24.000Z,986.5
2022-11-17T14:07:40.000Z,986.6
2022-11-17T14:08:56.000Z,986.5
2022-11-17T14:10:12.000Z,986.5
2022-11-17T14:12:45.000Z,986.5
2022-11-17T14:14:00.000Z,986.6
2022-11-17T14:15:15.000Z,986.5
2022-11-17T14:16:31.000Z,986.5
2022-11-17T14:17:48.000Z,986.5
2022-11-17T14:19:04.000Z,986.5
2022-11-17T14:20:20.000Z,986.6
2022-11-17T14:21:36.000Z,986.5
2022-11-17T14:22:53.000Z,986.6
2022-11-17T14:24:09.000Z,986.6
2022-11-17T14:25:25.000Z,986.6
2022-11-17T14:26:41.000Z,986.7
2022-11-17T14:27:58.000Z,986.7
2022-11-17T14:29:14.000Z,986.7
2022-11-17T14:30:30.000Z,986.7
2022-11-17T14:31:45.000Z,986.6
2022-11-17T14:33:02.000Z,986.7
2022-11-17T14:34:18.000Z,986.7
2022-11-17T14:35:34.000Z,986.7
2022-11-17T14:39:23.000Z,986.7
2022-11-17T14:40:39.000Z,986.8
2022-11-17T14:41:55.000Z,986.8
2022-11-17T14:43:11.000Z,986.8
2022-11-17T14:44:28.000Z,986.8
2022-11-17T14:45:44.000Z,986.8
2022-11-17T14:47:00.000Z,986.8
2022-11-17T14:48:15.000Z,986.8
2022-11-17T14:49:32.000Z,986.8
2022-11-17T14:50:48.000Z,986.8
2022-11-17T14:52:04.000Z,986.8
2022-11-17T14:53:20.000Z,986.8
2022-11-17T14:54:37.000Z,986.8
2022-11-17T14:55:53.000Z,986.9
2022-11-17T14:57:09.000Z,986.8
2022-11-17T14:58:25.000Z,986.8
2022-11-17T14:59:41.000Z,986.8
2022-11-17T15:00:58.000Z,986.8
2022-11-17T15:02:14.000Z,986.9
2022-11-17T15:03:30.000Z,986.9
2022-11-17T15:04:45.000Z,986.8
2022-11-17T15:06:02.000Z,986.9
2022-11-17T15:07:18.000Z,986.9
2022-11-17T15:08:34.000Z,986.9
2022-11-17T15:09:50.000Z,986.9
2022-11-17T15:11:07.000Z,986.9
2022-11-17T15:12:23.000Z,986.9
2022-11-17T15:13:39.000Z,986.9
2022-11-17T15:14:55.000Z,986.9
2022-11-17T15:16:11.000Z,987
2022-11-17T15:17:28.000Z,987
2022-11-17T15:18:44.000Z,987
2022-11-17T15:20:00.000Z,987
2022-11-17T15:21:15.000Z,987
2022-11-17T15:22:32.000Z,987
2022-11-17T15:23:48.000Z,987
2022-11-17T15:25:04.000Z,987
2022-11-17T15:26:20.000Z,987
2022-11-17T15:28:53.000Z,987
2022-11-17T15:30:09.000Z,987.1
2022-11-17T15:31:25.000Z,987.1
2022-11-17T15:32:42.000Z,987.1
2022-11-17T15:33:58.000Z,987.1
2022-11-17T15:35:14.000Z,987.1
2022-11-17T15:36:30.000Z,987.2
2022-11-17T15:37:46.000Z,987.1
2022-11-17T15:39:02.000Z,987.2
2022-11-17T15:40:18.000Z,987.2
2022-11-17T15:41:34.000Z,987.2
2022-11-17T15:42:50.000Z,987.3
2022-11-17T15:44:07.000Z,987.2
2022-11-17T15:45:23.000Z,987.2
2022-11-17T15:46:39.000Z,987.2
2022-11-17T15:47:55.000Z,987.2
2022-11-17T15:49:12.000Z,987.2
2022-11-17T15:50:28.000Z,987.2
2022-11-17T15:51:44.000Z,987.2
2022-11-17T15:53:00.000Z,987.2
2022-11-17T15:55:32.000Z,987.2
2022-11-17T15:56:48.000Z,987.3
2022-11-17T15:58:04.000Z,987.3
2022-11-17T15:59:20.000Z,987.3
2022-11-17T16:00:37.000Z,987.3
2022-11-17T16:01:53.000Z,987.3
2022-11-17T16:03:09.000Z,987.3
2022-11-17T16:04:25.000Z,987.4
2022-11-17T16:05:42.000Z,987.3
2022-11-17T16:06:58.000Z,987.3
2022-11-17T16:08:14.000Z,987.3
2022-11-17T16:09:30.000Z,987.4
2022-11-17T16:10:46.000Z,987.4
2022-11-17T16:12:02.000Z,987.4
2022-11-17T16:13:18.000Z,987.4
2022-11-17T16:14:34.000Z,987.4
2022-11-17T16:15:51.000Z,987.5
2022-11-17T16:17:07.000Z,987.4
2022-11-17T16:19:39.000Z,987.5
2022-11-17T16:20:55.000Z,987.5
2022-11-17T16:22:12.000Z,987.5
2022-11-17T16:23:28.000Z,987.5
2022-11-17T16:24:44.000Z,987.6
2022-11-17T16:26:00.000Z,987.6
2022-11-17T16:27:16.000Z,987.5
2022-11-17T16:28:32.000Z,987.6
2022-11-17T16:29:48.000Z,987.6
2022-11-17T16:32:21.000Z,987.6
2022-11-17T16:33:37.000Z,987.6
2022-11-17T16:34:53.000Z,987.6
2022-11-17T16:36:09.000Z,987.7
2022-11-17T16:37:26.000Z,987.6
2022-11-17T16:38:42.000Z,987.7
2022-11-17T16:39:58.000Z,987.6
2022-11-17T16:41:14.000Z,987.6
2022-11-17T16:42:30.000Z,987.7
2022-11-17T16:43:46.000Z,987.6
2022-11-17T16:45:02.000Z,987.6
2022-11-17T16:46:18.000Z,987.6
2022-11-17T16:47:34.000Z,987.7
2022-11-17T16:48:51.000Z,987.7
2022-11-17T16:50:07.000Z,987.6
2022-11-17T16:51:23.000Z,987.7
2022-11-17T16:52:39.000Z,987.7
2022-11-17T16:53:56.000Z,987.6
2022-11-17T16:55:12.000Z,987.6
2022-11-17T16:57:44.000Z,987.6
2022-11-17T16:59:01.000Z,987.6
2022-11-17T17:00:16.000Z,987.6
2022-11-17T17:01:32.000Z,987.6
2022-11-17T17:02:48.000Z,987.6
2022-11-17T17:04:04.000Z,987.7
2022-11-17T17:05:21.000Z,987.6
2022-11-17T17:06:37.000Z,987.7
2022-11-17T17:07:53.000Z,987.7
2022-11-17T17:09:09.000Z,987.7
2022-11-17T17:10:26.000Z,987.7
2022-11-17T17:11:42.000Z,987.8
2022-11-17T17:12:58.000Z,987.8